Mamolino 2072 — 9HB4203 — position and weather

sailwx.info

Track history (hours):
 
Tides and Currents Weather Stations Pressure Air Temp Water Temp Dewpoint Dewpoint Depression Visibility Wind Speed Wind Dir Waves Ship Positions

Mamolino 2072

Last reported at 2018-Feb-16 16:24 UTC. Time now 2018-Feb-22 20:10 UTC.
Position S 05°09' E 011°30'.

Length 20 m; draft 1 m.

Type: Passenger vessel. MMSI: 229990000.

Date/timePositionNaut miles runAvg speedWind from/ knotsBaromVisibWave heightAir tempDewpointWater temp
2018-Feb-16 16:24S 05°09' E 011°30'512.1
2018-Feb-16 16:00S 05°13' E 011°27'611.7
2018-Feb-16 15:30S 05°17' E 011°23'2 3.4
2018-Feb-16 14:59S 05°19' E 011°23'1 3.0
2018-Feb-16 14:30S 05°17' E 011°23'0 0.9
2018-Feb-16 14:00S 05°18' E 011°23'1 2.0
2018-Feb-16 13:30S 05°19' E 011°23'0 0.0
2018-Feb-16 13:00S 05°19' E 011°23'0 0.0
2018-Feb-16 12:29S 05°19' E 011°23'0 0.0
2018-Feb-16 11:59S 05°19' E 011°23'0 0.1
2018-Feb-16 11:28S 05°19' E 011°23'1 1.7
2018-Feb-16 11:00S 05°18' E 011°23'1 1.7
2018-Feb-16 10:30S 05°19' E 011°23'0 0.0
2018-Feb-16 10:00S 05°19' E 011°23'0 0.0
2018-Feb-16 09:28S 05°19' E 011°23'0 0.0
2018-Feb-16 09:00S 05°19' E 011°23'2 3.6
2018-Feb-16 08:30S 05°17' E 011°23'714.0
2018-Feb-16 07:58S 05°11' E 011°28'816.9
2018-Feb-16 07:29S 05°05' E 011°33'4 0.1
2018-Feb-14 15:08S 05°09' E 011°30'214.8
2018-Feb-14 15:00S 05°10' E 011°29'814.7
2018-Feb-14 14:28S 05°16' E 011°24'2 3.7
2018-Feb-14 13:58S 05°18' E 011°23'1 2.7
2018-Feb-14 13:30S 05°19' E 011°23'0 0.0
2018-Feb-14 13:00S 05°19' E 011°23'0 0.0
2018-Feb-14 12:30S 05°19' E 011°23'0 0.1
2018-Feb-14 12:00S 05°19' E 011°23'0 0.0
2018-Feb-14 11:29S 05°19' E 011°23'0 0.1
2018-Feb-14 11:00S 05°19' E 011°23'0 0.1
2018-Feb-14 10:30S 05°19' E 011°23'0 0.0
2018-Feb-14 09:43S 05°19' E 011°23'0 2.0
2018-Feb-14 09:29S 05°19' E 011°23'2 3.7
2018-Feb-14 09:00S 05°17' E 011°23'815.4
2018-Feb-14 08:28S 05°10' E 011°28'6 0.3
2018-Feb-13 12:34S 05°17' E 011°27'116.8
2018-Feb-13 12:29S 05°18' E 011°26'4 6.1
2018-Feb-13 11:54S 05°20' E 011°24'1 3.4
2018-Feb-13 11:30S 05°19' E 011°25'3 6.8
2018-Feb-13 11:00S 05°22' E 011°26'2 4.1
2018-Feb-13 10:30S 05°21' E 011°24'5 9.0
2018-Feb-13 10:00S 05°18' E 011°27'713.4
2018-Feb-13 09:30S 05°13' E 011°32'  
2018-Feb-09 08:00S 05°11' E 011°33'12 0.3
2018-Feb-07 09:31S 05°19' E 011°23'2 3.1
2018-Feb-07 09:00S 05°17' E 011°23'2 3.9
2018-Feb-07 08:28S 05°15' E 011°24'  
Track history (hours):
 
Tides and Currents Weather Stations Pressure Air Temp Water Temp Dewpoint Dewpoint Depression Visibility Wind Speed Wind Dir Waves Ship Positions

Mamolino 2072

Last reported at 2018-Feb-16 16:24 UTC. Time now 2018-Feb-22 20:10 UTC.
Position S 05°09' E 011°30'.

Length 20 m; draft 1 m.

Type: Passenger vessel. MMSI: 229990000.

Date/timePositionNaut miles runAvg speedWind from/ knotsBaromVisibWave heightAir tempDewpointWater temp
2018-Feb-16 16:24S 05°09' E 011°30'512.1
2018-Feb-16 16:00S 05°13' E 011°27'611.7
2018-Feb-16 15:30S 05°17' E 011°23'2 3.4
2018-Feb-16 14:59S 05°19' E 011°23'1 3.0
2018-Feb-16 14:30S 05°17' E 011°23'0 0.9
2018-Feb-16 14:00S 05°18' E 011°23'1 2.0
2018-Feb-16 13:30S 05°19' E 011°23'0 0.0
2018-Feb-16 13:00S 05°19' E 011°23'0 0.0
2018-Feb-16 12:29S 05°19' E 011°23'0 0.0
2018-Feb-16 11:59S 05°19' E 011°23'0 0.1
2018-Feb-16 11:28S 05°19' E 011°23'1 1.7
2018-Feb-16 11:00S 05°18' E 011°23'1 1.7
2018-Feb-16 10:30S 05°19' E 011°23'0 0.0
2018-Feb-16 10:00S 05°19' E 011°23'0 0.0
2018-Feb-16 09:28S 05°19' E 011°23'0 0.0
2018-Feb-16 09:00S 05°19' E 011°23'2 3.6
2018-Feb-16 08:30S 05°17' E 011°23'714.0
2018-Feb-16 07:58S 05°11' E 011°28'816.9
2018-Feb-16 07:29S 05°05' E 011°33'4 0.1
2018-Feb-14 15:08S 05°09' E 011°30'214.8
2018-Feb-14 15:00S 05°10' E 011°29'814.7
2018-Feb-14 14:28S 05°16' E 011°24'2 3.7
2018-Feb-14 13:58S 05°18' E 011°23'1 2.7
2018-Feb-14 13:30S 05°19' E 011°23'0 0.0
2018-Feb-14 13:00S 05°19' E 011°23'0 0.0
2018-Feb-14 12:30S 05°19' E 011°23'0 0.1
2018-Feb-14 12:00S 05°19' E 011°23'0 0.0
2018-Feb-14 11:29S 05°19' E 011°23'0 0.1
2018-Feb-14 11:00S 05°19' E 011°23'0 0.1
2018-Feb-14 10:30S 05°19' E 011°23'0 0.0
2018-Feb-14 09:43S 05°19' E 011°23'0 2.0
2018-Feb-14 09:29S 05°19' E 011°23'2 3.7
2018-Feb-14 09:00S 05°17' E 011°23'815.4
2018-Feb-14 08:28S 05°10' E 011°28'6 0.3
2018-Feb-13 12:34S 05°17' E 011°27'116.8
2018-Feb-13 12:29S 05°18' E 011°26'4 6.1
2018-Feb-13 11:54S 05°20' E 011°24'1 3.4
2018-Feb-13 11:30S 05°19' E 011°25'3 6.8
2018-Feb-13 11:00S 05°22' E 011°26'2 4.1
2018-Feb-13 10:30S 05°21' E 011°24'5 9.0
2018-Feb-13 10:00S 05°18' E 011°27'713.4
2018-Feb-13 09:30S 05°13' E 011°32'  
2018-Feb-09 08:00S 05°11' E 011°33'12 0.3
2018-Feb-07 09:31S 05°19' E 011°23'2 3.1
2018-Feb-07 09:00S 05°17' E 011°23'2 3.9
2018-Feb-07 08:28S 05°15' E 011°24'  

Dump ship's entire track history